Ronco, PA (15476)

9:35 AM EST on January 26, 2015 (GMT -0500)
Nick's Weather | Change Station
CLOSE
Current Station
Personal Weather Station
Location: Uniontown, PA
Elevation: 1060 ft
Nearby Weather Stations

Elev 1060 ft 39.90 °N, 79.74 °W | Updated 25 seconds ago

Snow
Snow
36.3 °F
Feels Like 36 °F
N
0.0
Wind Variable Wind from SW
Gusts 6.0 mph

Today
High -- | Low -- °F
--% Chance of Precip.
Yesterday
High -- | Low -- °F
Precip. -- in
7:33 AM 5:31 PM
Waxing Crescent, 43% visible
Pressure 29.68 in
Visibility 10.0 miles
Clouds Overcast 2200 ft
Windchill 36 °F
Dew Point 32 °F
Humidity 84%
Rainfall 0.15 in
Snow Depth Not available.
UV 0 out of 12
Pollen .10 out of 12
Air Quality Not available.
Flu Activity Not available.
METAR KMGW 261353Z VRB03KT 10SM OVC022 02/M02 A2966 RMK AO2 SLP050 T00221017

More Conditions Fewer Conditions

Pressure 29.68 in
Visibility 10.0 miles
Clouds Overcast 2200 ft
Windchill 36 °F
Dew Point 32 °F
Humidity 84%
Rainfall 0.15 in
Snow Depth Not available.
UV 0 out of 12
Pollen .10 out of 12
Air Quality Not available.
Flu Activity Not available.
METAR KMGW 261353Z VRB03KT 10SM OVC022 02/M02 A2966 RMK AO2 SLP050 T00221017

More Conditions Fewer Conditions

10-Day Weather Forecast

Almanac

Astronomy

Jan. 26, 2015 Rise Set
Actual Time
Civil Twilight
Nautical Twilight
Astronomical Twilight
Moon
Length of Visible Light
Length of Day
Tomorrow will be .
, % of the Moon is Illuminated

Today's Extremes

State Highs State Lows

Community

WunderPhotos

Upload Photos

1,790,226 photos uploaded!

WunderBlogs® & News

Nearby

Air Quality

  Air Quality AQ Index Pollutant
Not available.

Snow Depth

Station Depth Elevation

Earthquake Activity

City Distance Mag. Time & Date
Minimum magnitude displayed is 2.5.

Coastal Water Temperatures

Place Temperature

Nearby Weather Stations